createdAt,value
2023-10-20T00:02:26.659Z,79.40
2023-10-20T00:04:53.404Z,79.40
2023-10-20T00:07:22.592Z,79.30
2023-10-20T00:09:50.828Z,79.20
2023-10-20T00:12:17.718Z,79.10
2023-10-20T00:14:44.467Z,79.00
2023-10-20T00:17:11.298Z,78.90
2023-10-20T00:19:38.153Z,78.90
2023-10-20T00:22:04.998Z,78.80
2023-10-20T00:24:32.361Z,78.60
2023-10-20T00:26:59.172Z,78.50
2023-10-20T00:29:26.517Z,78.30
2023-10-20T00:31:53.348Z,78.80
2023-10-20T00:34:20.114Z,78.10
2023-10-20T00:36:46.968Z,78.00
2023-10-20T00:39:13.920Z,77.90
2023-10-20T00:41:40.700Z,77.90
2023-10-20T00:44:07.407Z,77.90
2023-10-20T00:46:35.353Z,77.90
2023-10-20T00:49:03.260Z,77.90
2023-10-20T00:51:30.451Z,77.80
2023-10-20T00:54:00.044Z,77.70
2023-10-20T00:56:28.385Z,77.50
2023-10-20T00:58:55.576Z,77.30
2023-10-20T01:01:22.363Z,77.30
2023-10-20T01:03:50.223Z,77.20
2023-10-20T01:06:17.109Z,77.10
2023-10-20T01:08:43.821Z,77.00
2023-10-20T01:11:10.575Z,76.80
2023-10-20T01:13:37.520Z,76.80
2023-10-20T01:16:04.686Z,76.70
2023-10-20T01:18:31.711Z,76.60
2023-10-20T01:20:58.615Z,76.60
2023-10-20T01:23:25.328Z,76.40
2023-10-20T01:25:54.256Z,76.40
2023-10-20T01:28:21.070Z,76.30
2023-10-20T01:30:50.636Z,76.10
2023-10-20T01:33:17.484Z,76.10
2023-10-20T01:35:44.291Z,76.10
2023-10-20T01:38:10.994Z,76.00
2023-10-20T01:40:37.734Z,76.00
2023-10-20T01:43:04.571Z,76.00
2023-10-20T01:45:31.248Z,75.90
2023-10-20T01:47:58.046Z,75.80
2023-10-20T01:50:26.116Z,75.90
2023-10-20T01:52:52.896Z,75.70
2023-10-20T01:55:19.817Z,75.60
2023-10-20T01:57:46.600Z,75.50
2023-10-20T02:00:18.128Z,75.40
2023-10-20T02:02:45.194Z,75.50
2023-10-20T02:05:13.494Z,75.50
2023-10-20T02:07:40.629Z,75.50
2023-10-20T02:10:08.137Z,75.40
2023-10-20T02:12:35.561Z,80.60
2023-10-20T02:15:02.401Z,76.20
2023-10-20T02:17:29.155Z,76.10
2023-10-20T02:19:55.888Z,74.90
2023-10-20T02:22:22.617Z,75.20
2023-10-20T02:24:49.291Z,75.10
2023-10-20T02:27:16.040Z,74.90
2023-10-20T02:29:43.340Z,74.70
2023-10-20T02:32:10.125Z,74.60
2023-10-20T02:34:36.888Z,74.70
2023-10-20T02:37:04.118Z,74.40
2023-10-20T02:39:30.949Z,74.30
2023-10-20T02:41:57.694Z,74.30
2023-10-20T02:44:28.486Z,74.30
2023-10-20T02:46:55.697Z,74.20
2023-10-20T02:49:22.532Z,74.30
2023-10-20T02:51:49.430Z,74.20
2023-10-20T02:54:16.145Z,74.00
2023-10-20T02:56:42.895Z,73.90
2023-10-20T02:59:09.663Z,73.80
2023-10-20T03:01:37.317Z,73.70
2023-10-20T03:04:04.248Z,73.60
2023-10-20T03:06:31.015Z,73.50
2023-10-20T03:08:57.712Z,73.50
2023-10-20T03:11:24.543Z,73.40
2023-10-20T03:18:45.724Z,73.40
2023-10-20T03:21:12.422Z,73.50
2023-10-20T03:23:42.039Z,73.40
2023-10-20T03:26:13.301Z,73.30
2023-10-20T03:28:40.899Z,73.30
2023-10-20T03:31:08.385Z,73.20
2023-10-20T03:33:35.152Z,73.20
2023-10-20T03:36:04.528Z,73.10
2023-10-20T03:38:32.152Z,73.20
2023-10-20T03:41:10.633Z,73.50
2023-10-20T03:43:37.518Z,73.40
2023-10-20T03:46:07.927Z,73.40
2023-10-20T03:48:36.093Z,73.30
2023-10-20T03:51:06.712Z,73.40
2023-10-20T03:53:51.766Z,73.40
2023-10-20T03:56:20.632Z,73.90
2023-10-20T03:58:48.105Z,73.40
2023-10-20T04:01:15.299Z,73.20
2023-10-20T04:03:44.612Z,73.20
2023-10-20T04:06:12.794Z,73.30
2023-10-20T04:08:39.816Z,73.40
2023-10-20T04:11:06.647Z,73.10
2023-10-20T04:13:33.578Z,72.90
2023-10-20T04:16:13.480Z,72.80
2023-10-20T04:18:41.746Z,72.80
2023-10-20T04:21:08.676Z,72.70
2023-10-20T04:23:35.486Z,72.80
2023-10-20T04:26:03.911Z,72.70
2023-10-20T04:28:44.131Z,72.70
2023-10-20T04:31:32.195Z,72.50
2023-10-20T04:37:03.622Z,72.40
2023-10-20T04:39:49.277Z,72.60
2023-10-20T04:42:18.682Z,72.70
2023-10-20T04:44:51.233Z,72.70
2023-10-20T04:47:27.006Z,72.70
2023-10-20T04:50:00.152Z,72.70
2023-10-20T04:52:45.424Z,72.80
2023-10-20T04:55:24.288Z,73.00
2023-10-20T04:57:54.291Z,72.90
2023-10-20T05:00:33.546Z,72.80
2023-10-20T05:03:03.305Z,73.00
2023-10-20T05:05:40.738Z,72.90
2023-10-20T05:08:13.602Z,73.00
2023-10-20T05:10:43.220Z,73.00
2023-10-20T05:15:41.616Z,72.90
2023-10-20T05:18:16.068Z,72.80
2023-10-20T05:20:47.392Z,72.80
2023-10-20T05:23:17.209Z,72.80
2023-10-20T05:25:50.735Z,72.80
2023-10-20T05:28:17.831Z,72.80
2023-10-20T05:30:46.178Z,72.80
2023-10-20T05:33:14.208Z,72.90
2023-10-20T05:35:41.922Z,72.70
2023-10-20T05:38:09.239Z,72.70
2023-10-20T05:40:37.163Z,72.70
2023-10-20T05:43:06.704Z,72.90
2023-10-20T05:45:52.039Z,72.90
2023-10-20T05:48:20.280Z,73.00
2023-10-20T05:50:47.116Z,72.90
2023-10-20T05:53:14.155Z,72.80
2023-10-20T05:55:40.953Z,72.70
2023-10-20T05:58:07.698Z,72.60
2023-10-20T06:00:49.221Z,72.70
2023-10-20T06:03:23.347Z,72.90
2023-10-20T06:05:50.259Z,73.10
2023-10-20T06:08:17.360Z,74.70
2023-10-20T06:10:45.653Z,73.30
2023-10-20T06:15:41.421Z,73.50
2023-10-20T06:18:11.809Z,72.20
2023-10-20T06:20:42.919Z,72.50
2023-10-20T06:23:09.680Z,73.60
2023-10-20T06:25:37.016Z,73.20
2023-10-20T06:28:05.671Z,72.80
2023-10-20T06:30:32.387Z,71.50
2023-10-20T06:33:14.300Z,70.40
2023-10-20T06:35:53.351Z,70.40
2023-10-20T06:38:31.347Z,70.00
2023-10-20T06:40:58.653Z,67.70
2023-10-20T06:43:26.023Z,67.50
2023-10-20T06:46:00.630Z,67.70
2023-10-20T06:48:29.253Z,68.10
2023-10-20T06:50:56.154Z,68.60
2023-10-20T06:53:23.012Z,68.90
2023-10-20T06:56:09.885Z,69.40
2023-10-20T06:58:39.066Z,70.10
2023-10-20T07:01:09.214Z,70.30
2023-10-20T07:03:36.258Z,70.60
2023-10-20T07:06:08.365Z,70.70
2023-10-20T07:08:36.472Z,71.00
2023-10-20T07:11:05.052Z,71.10
2023-10-20T07:13:32.770Z,71.40
2023-10-20T07:15:59.937Z,71.50
2023-10-20T07:18:27.593Z,71.50
2023-10-20T07:20:57.756Z,71.60
2023-10-20T07:23:25.636Z,71.50
2023-10-20T07:25:52.417Z,71.50
2023-10-20T07:28:19.125Z,71.50
2023-10-20T07:30:46.657Z,71.60
2023-10-20T07:33:13.534Z,71.80
2023-10-20T07:35:40.494Z,71.80
2023-10-20T07:38:09.223Z,72.20
2023-10-20T07:40:36.384Z,72.10
2023-10-20T07:43:07.302Z,72.60
2023-10-20T07:45:44.310Z,71.90
2023-10-20T07:48:12.183Z,71.60
2023-10-20T07:50:39.325Z,71.70
2023-10-20T07:53:06.536Z,71.80
2023-10-20T07:55:33.307Z,71.20
2023-10-20T07:58:00.031Z,70.80
2023-10-20T08:00:26.717Z,71.10
2023-10-20T08:02:55.470Z,70.70
2023-10-20T08:05:28.258Z,70.90
2023-10-20T08:07:56.180Z,70.30
2023-10-20T08:10:23.326Z,70.30
2023-10-20T08:12:50.485Z,70.20
2023-10-20T08:15:17.688Z,69.90
2023-10-20T08:17:46.788Z,69.00
2023-10-20T08:20:14.990Z,69.20
2023-10-20T08:22:41.779Z,68.90
2023-10-20T08:25:10.121Z,68.80
2023-10-20T08:27:37.853Z,68.70
2023-10-20T08:30:06.192Z,69.00
2023-10-20T08:32:35.785Z,69.00
2023-10-20T08:35:02.522Z,69.70
2023-10-20T08:37:29.678Z,69.50
2023-10-20T08:39:56.472Z,69.60
2023-10-20T08:42:23.292Z,69.20
2023-10-20T08:44:51.282Z,68.80
2023-10-20T08:47:20.646Z,68.70
2023-10-20T08:49:48.223Z,68.60
2023-10-20T08:52:15.188Z,68.60
2023-10-20T08:54:42.312Z,68.80
2023-10-20T08:57:09.507Z,69.30
2023-10-20T08:59:37.953Z,69.50
2023-10-20T09:02:05.369Z,69.50
2023-10-20T09:04:35.542Z,69.40
2023-10-20T09:07:13.221Z,69.70
2023-10-20T09:09:41.994Z,69.20
2023-10-20T09:12:10.125Z,69.90
2023-10-20T09:14:43.261Z,70.10
2023-10-20T11:02:46.082Z,71.00
2023-10-20T11:05:13.912Z,68.20
2023-10-20T11:07:41.484Z,67.90
2023-10-20T11:10:09.786Z,67.40
2023-10-20T11:12:36.842Z,67.40
2023-10-20T11:15:07.545Z,68.30
2023-10-20T11:17:34.431Z,67.60
2023-10-20T11:20:01.248Z,69.50
2023-10-20T11:22:28.015Z,68.40
2023-10-20T11:24:55.069Z,66.70
2023-10-20T11:27:21.862Z,67.30
2023-10-20T11:29:58.967Z,66.80
2023-10-20T11:32:27.185Z,68.10
2023-10-20T11:34:54.267Z,67.50
2023-10-20T11:37:20.983Z,66.30
2023-10-20T11:39:48.166Z,66.50
2023-10-20T11:42:15.164Z,66.10
2023-10-20T11:44:41.894Z,67.80
2023-10-20T11:47:08.674Z,69.00
2023-10-20T11:49:35.354Z,68.00
2023-10-20T11:52:03.694Z,66.50
2023-10-20T11:54:33.013Z,66.20
2023-10-20T11:57:00.233Z,66.60
2023-10-20T11:59:27.082Z,66.70
2023-10-20T12:01:53.926Z,66.40
2023-10-20T12:04:21.858Z,66.60
2023-10-20T12:06:49.749Z,67.30
2023-10-20T12:09:20.750Z,67.70
2023-10-20T12:11:47.573Z,67.60
2023-10-20T12:14:16.097Z,67.20
2023-10-20T12:16:43.485Z,67.30
2023-10-20T12:19:10.327Z,67.30
2023-10-20T12:21:37.135Z,67.50
2023-10-20T12:24:04.753Z,67.40
2023-10-20T12:26:31.557Z,67.40
2023-10-20T12:28:58.359Z,67.20
2023-10-20T12:31:29.630Z,68.00
2023-10-20T12:33:56.445Z,68.10
2023-10-20T12:36:23.211Z,68.10
2023-10-20T12:38:49.968Z,67.60
2023-10-20T12:41:17.442Z,67.60
2023-10-20T12:43:45.615Z,68.30
2023-10-20T12:46:15.438Z,67.30
2023-10-20T12:48:42.378Z,67.60
2023-10-20T12:51:10.242Z,67.50
2023-10-20T12:53:37.722Z,67.30
2023-10-20T12:56:06.245Z,67.30
2023-10-20T12:58:33.968Z,67.30
2023-10-20T13:01:00.722Z,67.80
2023-10-20T13:03:28.248Z,67.90
2023-10-20T13:05:55.924Z,68.50
2023-10-20T13:08:25.196Z,67.80
2023-10-20T13:10:52.821Z,68.30
2023-10-20T13:13:20.060Z,68.10
2023-10-20T13:15:47.073Z,67.60
2023-10-20T13:18:14.370Z,67.50
2023-10-20T13:20:41.926Z,67.50
2023-10-20T13:23:08.844Z,67.90
2023-10-20T13:25:36.224Z,69.00
2023-10-20T13:28:05.214Z,67.50
2023-10-20T13:30:32.988Z,67.80
2023-10-20T13:33:00.929Z,68.00
2023-10-20T13:35:27.781Z,68.90
2023-10-20T13:37:54.535Z,68.00
2023-10-20T13:40:21.331Z,67.80
2023-10-20T13:42:48.249Z,68.70
2023-10-20T13:45:14.997Z,69.00
2023-10-20T13:47:43.940Z,68.60
2023-10-20T13:50:13.516Z,68.50
2023-10-20T13:52:40.194Z,68.60
2023-10-20T13:55:07.988Z,68.30
2023-10-20T13:57:34.730Z,67.70
2023-10-20T14:00:01.549Z,67.70
2023-10-20T14:02:29.487Z,67.40
2023-10-20T14:04:56.381Z,68.00
2023-10-20T14:07:23.126Z,68.00
2023-10-20T14:09:49.953Z,67.60
2023-10-20T14:12:16.755Z,67.50
2023-10-20T14:14:44.113Z,68.00
2023-10-20T14:17:10.985Z,68.10
2023-10-20T14:19:37.908Z,68.20
2023-10-20T14:22:05.657Z,68.30
2023-10-20T14:24:32.339Z,68.30
2023-10-20T15:53:23.107Z,69.00
2023-10-20T15:55:53.823Z,72.20
2023-10-20T15:58:20.705Z,72.10
2023-10-20T16:00:47.827Z,72.00
2023-10-20T16:03:17.391Z,72.10
2023-10-20T16:05:45.715Z,72.20
2023-10-20T16:08:12.396Z,72.40
2023-10-20T16:10:39.186Z,72.60
2023-10-20T16:13:05.960Z,72.70
2023-10-20T16:15:33.622Z,72.80
2023-10-20T16:20:27.792Z,72.90
2023-10-20T16:22:54.516Z,74.50
2023-10-20T16:30:16.598Z,75.00
2023-10-20T16:32:43.386Z,77.00
2023-10-20T16:37:38.890Z,77.60
2023-10-20T16:40:07.369Z,78.40
2023-10-20T16:42:34.367Z,78.80
2023-10-20T16:45:03.169Z,79.20
2023-10-20T16:47:31.262Z,79.50
2023-10-20T16:49:58.002Z,79.90
2023-10-20T16:52:24.695Z,80.20
2023-10-20T16:54:54.448Z,80.50
2023-10-20T16:57:21.164Z,80.90
2023-10-20T16:59:49.006Z,81.10
2023-10-20T17:02:16.257Z,81.40
2023-10-20T17:04:45.126Z,81.60
2023-10-20T17:07:11.806Z,81.90
2023-10-20T17:09:38.611Z,81.90
2023-10-20T17:12:05.593Z,81.70
2023-10-20T17:14:33.895Z,81.40
2023-10-20T17:17:02.939Z,81.20
2023-10-20T17:19:29.599Z,81.00
2023-10-20T17:21:57.407Z,80.80
2023-10-20T17:24:26.564Z,80.60
2023-10-20T17:26:53.422Z,80.50
2023-10-20T17:29:20.189Z,80.40
2023-10-20T17:31:46.929Z,80.30
2023-10-20T17:34:14.351Z,80.20
2023-10-20T17:36:41.089Z,80.10
2023-10-20T17:39:08.649Z,80.10
2023-10-20T17:41:35.677Z,80.00
2023-10-20T17:44:02.497Z,80.00
2023-10-20T17:46:29.322Z,80.10
2023-10-20T17:48:56.207Z,80.10
2023-10-20T17:51:23.641Z,80.20
2023-10-20T17:53:50.589Z,80.40
2023-10-20T17:56:17.963Z,80.60
2023-10-20T17:58:44.718Z,81.00
2023-10-20T18:01:12.225Z,81.30
2023-10-20T18:06:16.895Z,81.40
2023-10-20T18:08:49.158Z,81.80
2023-10-20T18:11:17.587Z,81.80
2023-10-20T18:13:46.284Z,82.10
2023-10-20T18:16:17.992Z,82.40
2023-10-20T18:18:49.463Z,82.60
2023-10-20T18:21:19.134Z,82.80
2023-10-20T18:23:47.848Z,83.00
2023-10-20T18:26:14.969Z,83.70
2023-10-20T18:28:42.111Z,83.40
2023-10-20T18:31:17.224Z,83.50
2023-10-20T18:33:46.674Z,83.80
2023-10-20T18:36:13.718Z,83.80
2023-10-20T18:38:41.747Z,84.00
2023-10-20T18:41:16.017Z,84.20
2023-10-20T18:43:43.697Z,84.20
2023-10-20T18:46:10.782Z,84.20
2023-10-20T18:48:37.953Z,84.30
2023-10-20T18:51:09.327Z,84.40
2023-10-20T18:53:36.340Z,84.50
2023-10-20T18:56:04.664Z,84.40
2023-10-20T18:58:31.775Z,84.50
2023-10-20T19:00:59.879Z,84.60
2023-10-20T19:03:27.451Z,84.70
2023-10-20T19:05:54.476Z,84.70
2023-10-20T19:08:21.421Z,84.80
2023-10-20T19:15:45.327Z,85.00
2023-10-20T19:18:12.198Z,85.20
2023-10-20T19:20:39.198Z,85.20
2023-10-20T19:23:08.527Z,85.20
2023-10-20T19:25:36.750Z,85.20
2023-10-20T19:28:05.053Z,85.20
2023-10-20T19:30:35.424Z,85.30
2023-10-20T19:33:02.334Z,85.20
2023-10-20T19:35:29.424Z,85.20
2023-10-20T19:37:57.128Z,85.20
2023-10-20T19:40:23.897Z,85.20
2023-10-20T19:42:50.613Z,85.20
2023-10-20T19:45:17.503Z,85.20
2023-10-20T19:47:45.727Z,85.00
2023-10-20T19:50:12.474Z,85.10
2023-10-20T19:52:39.470Z,84.80
2023-10-20T19:55:06.601Z,84.90
2023-10-20T19:57:33.327Z,84.80
2023-10-20T20:00:00.097Z,84.80
2023-10-20T20:02:27.475Z,84.70
2023-10-20T20:17:10.320Z,84.70
2023-10-20T20:19:37.445Z,84.50
2023-10-20T20:22:04.316Z,84.50
2023-10-20T20:24:32.083Z,84.40
2023-10-20T20:27:01.101Z,84.50
2023-10-20T20:29:28.533Z,84.40
2023-10-20T20:31:55.264Z,84.40
2023-10-20T20:34:21.982Z,84.30
2023-10-20T20:36:48.764Z,84.30
2023-10-20T20:39:15.702Z,84.20
2023-10-20T20:41:42.578Z,84.10
2023-10-20T20:44:09.408Z,84.10
2023-10-20T20:46:36.363Z,83.90
2023-10-20T20:49:03.132Z,83.90
2023-10-20T20:51:30.034Z,83.90
2023-10-20T20:53:56.887Z,84.00
2023-10-20T20:56:23.770Z,83.90
2023-10-20T20:59:01.775Z,83.90
2023-10-20T21:01:28.914Z,83.90
2023-10-20T21:04:01.594Z,83.90
2023-10-20T21:06:28.636Z,84.00
2023-10-20T21:08:58.044Z,83.90
2023-10-20T21:11:24.871Z,83.90
2023-10-20T21:13:52.423Z,83.60
2023-10-20T21:16:19.316Z,83.50
2023-10-20T21:18:46.285Z,83.30
2023-10-20T21:21:17.593Z,83.10
2023-10-20T21:23:47.359Z,82.90
2023-10-20T21:36:04.193Z,82.60
2023-10-20T21:38:30.997Z,81.60
2023-10-20T21:40:58.797Z,81.50
2023-10-20T21:43:25.805Z,81.30
2023-10-20T21:45:57.538Z,81.00
2023-10-20T21:48:25.336Z,80.80
2023-10-20T21:50:59.555Z,80.70
2023-10-20T21:53:27.210Z,80.50
2023-10-20T21:56:07.787Z,80.30
2023-10-20T21:58:38.128Z,80.30
2023-10-20T22:01:10.149Z,80.10
2023-10-20T22:03:39.310Z,80.00
2023-10-20T22:06:10.111Z,79.70
2023-10-20T22:08:37.145Z,79.60
2023-10-20T22:11:04.220Z,79.50
2023-10-20T22:13:31.466Z,79.40
2023-10-20T22:15:58.743Z,79.20
2023-10-20T22:18:25.736Z,79.20
2023-10-20T22:20:52.571Z,79.20
2023-10-20T22:23:19.659Z,79.10
2023-10-20T22:25:46.552Z,79.00
2023-10-20T22:28:13.215Z,78.90
2023-10-20T22:30:41.400Z,78.70
2023-10-20T22:33:09.269Z,78.60
2023-10-20T22:35:36.062Z,78.10
2023-10-20T22:38:02.876Z,78.20
2023-10-20T22:40:29.740Z,78.00
2023-10-20T22:42:56.750Z,77.70
2023-10-20T22:45:23.478Z,77.40
2023-10-20T22:47:50.243Z,77.30
2023-10-20T22:50:20.496Z,77.10
2023-10-20T22:52:50.210Z,76.80
2023-10-20T22:55:16.993Z,76.60
2023-10-20T22:57:46.159Z,76.60
2023-10-20T23:00:13.805Z,76.40
2023-10-20T23:02:41.213Z,76.20
2023-10-20T23:05:09.322Z,76.00
2023-10-20T23:07:36.314Z,75.90
2023-10-20T23:10:04.534Z,75.90
2023-10-20T23:12:32.761Z,75.80
2023-10-20T23:14:59.842Z,75.80
2023-10-20T23:17:27.180Z,75.70
2023-10-20T23:19:55.346Z,75.50
2023-10-20T23:22:22.083Z,75.90
2023-10-20T23:24:48.904Z,75.50
2023-10-20T23:27:15.699Z,75.10
2023-10-20T23:29:42.475Z,74.80
2023-10-20T23:32:09.935Z,74.90
2023-10-20T23:34:36.926Z,74.90
2023-10-20T23:37:04.502Z,74.90
2023-10-20T23:44:30.909Z,75.00
2023-10-20T23:46:58.148Z,74.80
2023-10-20T23:51:52.886Z,74.30
2023-10-20T23:59:14.339Z,73.90
